createdAt,value
2018-01-22T00:00:07.571Z,11.13
2018-01-22T00:02:34.123Z,12.27
2018-01-22T00:05:00.575Z,16.13
2018-01-22T00:07:26.991Z,13.87
2018-01-22T00:09:53.441Z,13.87
2018-01-22T00:12:19.992Z,8.10
2018-01-22T00:14:46.430Z,12.77
2018-01-22T00:17:12.982Z,7.13
2018-01-22T00:19:39.459Z,12.23
2018-01-22T00:22:07.622Z,9.90
2018-01-22T00:24:34.180Z,11.90
2018-01-22T00:27:00.824Z,14.10
2018-01-22T00:29:27.455Z,9.83
2018-01-22T00:31:53.871Z,13.70
2018-01-22T00:34:20.325Z,13.40
2018-01-22T00:36:46.741Z,10.50
2018-01-22T00:39:13.907Z,11.10
2018-01-22T00:41:40.371Z,8.20
2018-01-22T00:44:07.677Z,11.30
2018-01-22T00:46:34.894Z,13.53
2018-01-22T00:49:01.394Z,12.10
2018-01-22T00:51:28.575Z,12.57
2018-01-22T00:53:55.767Z,12.20
2018-01-22T00:56:22.912Z,15.67
2018-01-22T00:58:49.391Z,14.77
2018-01-22T01:01:15.857Z,13.50
2018-01-22T01:03:42.281Z,4.37
2018-01-22T01:06:09.268Z,14.70
2018-01-22T01:08:35.838Z,12.30
2018-01-22T01:11:02.488Z,13.27
2018-01-22T01:13:29.674Z,14.30
2018-01-22T01:15:56.098Z,15.40
2018-01-22T01:18:23.280Z,13.50
2018-01-22T01:20:49.707Z,10.60
2018-01-22T01:23:16.973Z,15.50
2018-01-22T01:25:49.610Z,13.50
2018-01-22T01:28:16.901Z,14.40
2018-01-22T01:30:43.377Z,15.07
2018-01-22T01:33:09.946Z,13.87
2018-01-22T01:35:36.441Z,14.90
2018-01-22T01:38:04.725Z,14.50
2018-01-22T01:40:31.260Z,18.67
2018-01-22T01:42:57.730Z,15.93
2018-01-22T01:45:24.931Z,14.20
2018-01-22T01:47:51.942Z,12.13
2018-01-22T01:50:18.367Z,14.83
2018-01-22T01:52:44.841Z,13.90
2018-01-22T01:55:11.243Z,15.13
2018-01-22T01:57:37.695Z,11.83
2018-01-22T02:00:04.778Z,14.00
2018-01-22T02:02:31.285Z,20.63
2018-01-22T02:04:57.670Z,13.37
2018-01-22T02:07:24.130Z,12.17
2018-01-22T02:09:50.566Z,18.93
2018-01-22T02:12:17.224Z,13.00
2018-01-22T02:14:43.629Z,13.67
2018-01-22T02:17:10.050Z,9.53
2018-01-22T02:19:36.530Z,12.67
2018-01-22T02:22:03.399Z,13.43
2018-01-22T02:24:30.727Z,12.47
2018-01-22T02:26:57.156Z,15.87
2018-01-22T02:29:23.602Z,15.33
2018-01-22T02:31:50.020Z,11.30
2018-01-22T02:34:17.206Z,13.27
2018-01-22T02:36:43.653Z,10.40
2018-01-22T02:39:10.868Z,11.57
2018-01-22T02:41:38.056Z,9.07
2018-01-22T02:44:06.217Z,10.17
2018-01-22T02:46:32.708Z,8.30
2018-01-22T02:48:59.215Z,13.07
2018-01-22T02:51:25.682Z,6.17
2018-01-22T02:53:52.179Z,13.90
2018-01-22T02:56:18.806Z,11.47
2018-01-22T02:58:45.297Z,11.20
2018-01-22T03:01:11.855Z,16.00
2018-01-22T03:03:38.383Z,10.60
2018-01-22T03:06:05.570Z,14.90
2018-01-22T03:08:32.941Z,5.73
2018-01-22T03:10:59.480Z,12.53
2018-01-22T03:13:26.000Z,14.67
2018-01-22T03:15:52.486Z,11.63
2018-01-22T03:18:19.015Z,11.20
2018-01-22T03:20:46.281Z,14.30
2018-01-22T03:23:12.715Z,13.07
2018-01-22T03:25:40.187Z,11.80
2018-01-22T03:28:07.247Z,14.90
2018-01-22T03:30:33.686Z,12.20
2018-01-22T03:33:00.170Z,13.73
2018-01-22T03:35:26.893Z,15.20
2018-01-22T03:37:53.341Z,11.27
2018-01-22T03:40:19.742Z,12.77
2018-01-22T03:42:46.184Z,13.70
2018-01-22T03:45:12.682Z,12.63
2018-01-22T03:47:39.116Z,13.67
2018-01-22T03:50:06.276Z,14.73
2018-01-22T03:52:32.700Z,11.97
2018-01-22T03:54:59.194Z,13.00
2018-01-22T03:57:25.691Z,12.50
2018-01-22T03:59:52.167Z,16.20
2018-01-22T04:02:18.618Z,21.53
2018-01-22T04:04:45.911Z,15.00
2018-01-22T04:07:17.048Z,11.63
2018-01-22T04:09:43.476Z,13.27
2018-01-22T04:12:10.801Z,13.90
2018-01-22T04:14:37.282Z,11.70
2018-01-22T04:17:04.648Z,13.07
2018-01-22T04:19:31.063Z,13.47
2018-01-22T04:21:57.534Z,19.27
2018-01-22T04:24:24.076Z,14.10
2018-01-22T04:26:50.608Z,13.30
2018-01-22T04:29:17.382Z,17.10
2018-01-22T04:31:43.838Z,12.77
2018-01-22T04:34:10.396Z,17.27
2018-01-22T04:36:36.833Z,14.60
2018-01-22T04:39:04.700Z,12.80
2018-01-22T04:41:31.929Z,13.63
2018-01-22T04:43:58.405Z,13.87
2018-01-22T04:46:24.896Z,20.80
2018-01-22T04:48:51.411Z,12.93
2018-01-22T04:51:17.943Z,14.37
2018-01-22T04:53:45.249Z,16.97
2018-01-22T04:56:12.494Z,11.47
2018-01-22T04:58:39.149Z,13.27
2018-01-22T05:01:05.755Z,11.50
2018-01-22T05:03:32.258Z,15.43
2018-01-22T05:05:59.433Z,15.73
2018-01-22T05:08:26.447Z,12.90
2018-01-22T05:10:53.012Z,15.93
2018-01-22T05:13:19.473Z,22.67
2018-01-22T05:15:45.926Z,16.73
2018-01-22T05:18:12.441Z,17.80
2018-01-22T05:20:38.921Z,14.53
2018-01-22T05:23:06.546Z,18.73
2018-01-22T05:25:33.068Z,21.67
2018-01-22T05:27:59.521Z,18.90
2018-01-22T05:30:26.723Z,15.20
2018-01-22T05:32:53.156Z,20.17
2018-01-22T05:35:19.656Z,24.17
2018-01-22T05:37:46.170Z,26.23
2018-01-22T05:40:12.729Z,19.73
2018-01-22T05:42:39.239Z,21.47
2018-01-22T05:45:06.840Z,19.20
2018-01-22T05:47:33.466Z,17.63
2018-01-22T05:50:00.732Z,19.57
2018-01-22T05:52:28.026Z,21.40
2018-01-22T05:54:55.194Z,20.50
2018-01-22T05:57:21.736Z,20.17
2018-01-22T05:59:48.236Z,20.77
2018-01-22T06:02:14.721Z,19.60
2018-01-22T06:04:41.962Z,19.67
2018-01-22T06:07:08.760Z,18.43
2018-01-22T06:09:35.267Z,19.87
2018-01-22T06:12:03.947Z,20.23
2018-01-22T06:14:30.476Z,19.83
2018-01-22T06:16:56.960Z,21.03
2018-01-22T06:19:24.168Z,20.17
2018-01-22T06:21:50.689Z,17.07
2018-01-22T06:24:17.843Z,17.47
2018-01-22T06:26:44.274Z,18.90
2018-01-22T06:29:10.734Z,18.37
2018-01-22T06:31:37.966Z,27.10
2018-01-22T06:34:05.130Z,16.77
2018-01-22T06:36:31.678Z,19.47
2018-01-22T06:38:58.145Z,21.10
2018-01-22T06:41:24.775Z,21.90
2018-01-22T06:43:52.053Z,24.07
2018-01-22T06:46:19.353Z,21.43
2018-01-22T06:48:46.584Z,22.40
2018-01-22T06:51:13.136Z,24.73
2018-01-22T06:53:40.455Z,23.77
2018-01-22T06:56:07.539Z,34.87
2018-01-22T06:58:34.202Z,30.40
2018-01-22T07:01:00.901Z,27.37
2018-01-22T07:03:27.625Z,23.17
2018-01-22T07:05:54.334Z,40.63
2018-01-22T07:08:21.093Z,28.60
2018-01-22T07:10:48.254Z,36.27
2018-01-22T07:13:15.991Z,32.87
2018-01-22T07:15:44.291Z,30.23
2018-01-22T07:18:11.646Z,28.63
2018-01-22T07:20:38.554Z,29.30
2018-01-22T07:23:07.444Z,36.23
2018-01-22T07:25:33.944Z,28.00
2018-01-22T07:28:01.509Z,26.67
2018-01-22T07:30:28.938Z,37.63
2018-01-22T07:32:56.516Z,37.87
2018-01-22T07:35:24.950Z,41.67
2018-01-22T07:37:53.602Z,72.40
2018-01-22T07:40:22.106Z,79.03
2018-01-22T07:42:50.145Z,83.17
2018-01-22T07:45:19.147Z,95.60
2018-01-22T07:47:47.064Z,101.43
2018-01-22T07:50:13.901Z,133.67
2018-01-22T07:52:40.415Z,136.20
2018-01-22T07:55:08.020Z,137.77
2018-01-22T07:57:35.311Z,132.67
2018-01-22T08:00:02.090Z,161.70
2018-01-22T08:02:29.200Z,177.90
2018-01-22T08:04:56.483Z,200.57
2018-01-22T08:07:23.888Z,181.90
2018-01-22T08:09:51.085Z,173.63
2018-01-22T08:12:17.716Z,195.73
2018-01-22T08:14:44.418Z,173.20
2018-01-22T08:17:10.951Z,192.93
2018-01-22T08:19:38.321Z,180.13
2018-01-22T08:22:06.350Z,185.93
2018-01-22T08:24:34.548Z,148.97
2018-01-22T08:27:01.441Z,184.17
2018-01-22T08:29:28.093Z,173.97
2018-01-22T08:31:55.657Z,153.97
2018-01-22T08:34:23.568Z,155.33
2018-01-22T08:36:51.202Z,156.33
2018-01-22T08:39:19.509Z,142.63
2018-01-22T08:41:46.843Z,133.13
2018-01-22T08:44:13.910Z,142.40
2018-01-22T08:46:40.950Z,125.07
2018-01-22T08:49:07.630Z,140.73
2018-01-22T08:51:34.378Z,124.63
2018-01-22T08:54:00.892Z,122.80
2018-01-22T08:56:28.161Z,108.23
2018-01-22T08:58:55.398Z,94.90
2018-01-22T09:01:22.101Z,104.43
2018-01-22T09:03:49.635Z,94.83
2018-01-22T09:06:16.388Z,71.90
2018-01-22T09:08:44.325Z,39.23
2018-01-22T09:11:10.841Z,49.43
2018-01-22T09:13:37.444Z,41.97
2018-01-22T09:16:06.507Z,35.63
2018-01-22T09:18:34.106Z,36.70
2018-01-22T09:21:01.334Z,48.37
2018-01-22T09:23:28.043Z,42.37
2018-01-22T09:25:54.650Z,36.83
2018-01-22T09:28:21.659Z,40.27
2018-01-22T09:30:48.954Z,31.57
2018-01-22T09:33:20.508Z,40.10
2018-01-22T09:35:49.616Z,47.67
2018-01-22T09:38:17.272Z,31.90
2018-01-22T09:40:43.813Z,28.83
2018-01-22T09:43:10.385Z,26.73
2018-01-22T09:45:37.804Z,26.50
2018-01-22T09:48:07.478Z,24.73
2018-01-22T09:50:34.396Z,28.73
2018-01-22T09:53:01.031Z,27.57
2018-01-22T09:55:28.393Z,30.07
2018-01-22T09:57:55.618Z,29.57
2018-01-22T10:00:22.874Z,28.53
2018-01-22T10:02:49.544Z,22.83
2018-01-22T10:05:16.879Z,21.27
2018-01-22T10:07:43.676Z,19.10
2018-01-22T10:10:10.290Z,25.33
2018-01-22T10:12:37.150Z,27.53
2018-01-22T10:15:04.425Z,23.20
2018-01-22T10:17:31.803Z,20.43
2018-01-22T10:20:00.444Z,18.10
2018-01-22T10:22:27.034Z,21.07
2018-01-22T10:24:55.924Z,21.80
2018-01-22T10:27:24.718Z,22.07
2018-01-22T10:29:51.315Z,26.90
2018-01-22T10:32:20.127Z,26.43
2018-01-22T10:34:49.318Z,18.40
2018-01-22T10:37:17.965Z,16.93
2018-01-22T10:39:45.777Z,22.40
2018-01-22T10:42:14.354Z,19.77
2018-01-22T10:44:42.271Z,23.27
2018-01-22T10:47:08.853Z,21.00
2018-01-22T10:49:35.745Z,16.80
2018-01-22T10:52:03.665Z,30.47
2018-01-22T10:54:30.785Z,10.73
2018-01-22T10:56:58.090Z,17.60
2018-01-22T10:59:25.763Z,25.43
2018-01-22T11:01:52.285Z,26.40
2018-01-22T11:04:19.547Z,20.13
2018-01-22T11:06:46.270Z,14.30
2018-01-22T11:09:12.871Z,16.90
2018-01-22T11:11:39.425Z,12.80
2018-01-22T11:14:06.870Z,12.77
2018-01-22T11:16:33.497Z,21.03
2018-01-22T11:19:00.047Z,18.50
2018-01-22T11:21:27.077Z,11.93
2018-01-22T11:23:54.918Z,15.50
2018-01-22T11:26:21.508Z,17.50
2018-01-22T11:28:48.141Z,17.30
2018-01-22T11:31:16.117Z,10.70
2018-01-22T11:33:43.654Z,12.03
2018-01-22T11:36:10.966Z,12.83
2018-01-22T11:38:38.278Z,12.93
2018-01-22T11:41:05.648Z,17.83
2018-01-22T11:43:33.033Z,10.80
2018-01-22T11:46:02.696Z,25.40
2018-01-22T11:48:32.642Z,13.43
2018-01-22T11:50:59.324Z,7.73
2018-01-22T11:53:28.099Z,17.70
2018-01-22T11:55:55.224Z,15.20
2018-01-22T11:58:21.896Z,11.90
2018-01-22T12:00:49.027Z,22.93
2018-01-22T12:03:20.694Z,12.67
2018-01-22T12:05:47.579Z,21.33
2018-01-22T12:08:14.168Z,7.90
2018-01-22T12:10:41.472Z,9.50
2018-01-22T12:13:08.047Z,16.30
2018-01-22T12:15:34.681Z,15.93
2018-01-22T12:18:02.213Z,11.17
2018-01-22T12:20:29.821Z,9.53
2018-01-22T12:22:59.405Z,14.13
2018-01-22T12:25:27.730Z,11.97
2018-01-22T12:27:54.764Z,9.33
2018-01-22T12:30:22.805Z,8.63
2018-01-22T12:32:51.884Z,14.50
2018-01-22T12:35:19.677Z,9.40
2018-01-22T12:37:47.455Z,12.43
2018-01-22T12:40:14.665Z,12.50
2018-01-22T12:42:41.885Z,13.10
2018-01-22T12:45:12.204Z,13.87
2018-01-22T12:47:39.623Z,15.13
2018-01-22T12:50:08.175Z,13.40
2018-01-22T12:52:36.320Z,11.60
2018-01-22T12:55:03.167Z,18.47
2018-01-22T12:57:29.790Z,18.17
2018-01-22T12:59:56.443Z,11.17
2018-01-22T13:02:23.132Z,12.00
2018-01-22T13:04:50.206Z,17.43
2018-01-22T13:07:16.853Z,16.57
2018-01-22T13:09:44.745Z,13.67
2018-01-22T13:12:15.310Z,8.47
2018-01-22T13:14:42.117Z,13.30
2018-01-22T13:17:08.988Z,7.07
2018-01-22T13:19:35.995Z,17.27
2018-01-22T13:22:04.414Z,12.93
2018-01-22T13:24:31.814Z,12.73
2018-01-22T13:26:59.169Z,11.20
2018-01-22T13:29:26.936Z,11.40
2018-01-22T13:31:54.400Z,9.67
2018-01-22T13:34:21.205Z,15.30
2018-01-22T13:36:47.856Z,11.13
2018-01-22T13:39:14.391Z,12.93
2018-01-22T13:41:41.746Z,11.10
2018-01-22T13:44:08.339Z,15.00
2018-01-22T13:46:35.095Z,14.73
2018-01-22T13:49:01.686Z,9.80
2018-01-22T13:51:29.299Z,16.73
2018-01-22T13:53:55.957Z,15.40
2018-01-22T13:56:23.088Z,10.43
2018-01-22T13:58:50.955Z,13.33
2018-01-22T14:01:18.488Z,11.77
2018-01-22T14:03:45.211Z,10.40
2018-01-22T14:06:11.856Z,12.80
2018-01-22T14:08:38.559Z,15.90
2018-01-22T14:11:05.787Z,7.27
2018-01-22T14:13:33.053Z,16.03
2018-01-22T14:16:03.563Z,8.13
2018-01-22T14:18:30.203Z,12.20
2018-01-22T14:20:56.660Z,11.50
2018-01-22T14:23:23.302Z,11.47
2018-01-22T14:25:49.871Z,19.50
2018-01-22T14:28:17.262Z,10.90
2018-01-22T14:30:45.772Z,11.07
2018-01-22T14:33:13.049Z,20.43
2018-01-22T14:35:39.686Z,8.13
2018-01-22T14:38:06.944Z,8.33
2018-01-22T14:40:34.695Z,12.67
2018-01-22T14:43:01.331Z,16.40
2018-01-22T14:45:29.296Z,9.87
2018-01-22T14:47:55.851Z,15.77
2018-01-22T14:50:23.200Z,8.33
2018-01-22T14:52:50.615Z,6.57
2018-01-22T14:55:17.305Z,8.80
2018-01-22T14:57:45.024Z,8.50
2018-01-22T15:00:12.640Z,12.00
2018-01-22T15:02:39.811Z,15.20
2018-01-22T15:05:07.202Z,18.53
2018-01-22T15:07:35.255Z,16.83
2018-01-22T15:10:01.871Z,12.20
2018-01-22T15:12:28.617Z,15.53
2018-01-22T15:14:55.127Z,10.57
2018-01-22T15:17:21.763Z,17.33
2018-01-22T15:19:48.672Z,11.63
2018-01-22T15:22:15.892Z,12.30
2018-01-22T15:24:43.160Z,16.20
2018-01-22T15:27:09.734Z,15.63
2018-01-22T15:29:36.233Z,10.83
2018-01-22T15:32:03.812Z,11.63
2018-01-22T15:34:30.359Z,10.97
2018-01-22T15:37:00.597Z,24.13
2018-01-22T15:39:34.856Z,17.53
2018-01-22T15:42:02.281Z,9.53
2018-01-22T15:44:30.093Z,11.50
2018-01-22T15:46:56.658Z,19.57
2018-01-22T15:49:23.238Z,15.10
2018-01-22T15:51:50.024Z,9.23
2018-01-22T15:54:18.120Z,13.40
2018-01-22T15:56:44.949Z,12.40
2018-01-22T15:59:13.137Z,13.43
2018-01-22T16:01:39.741Z,13.67
2018-01-22T16:04:06.472Z,9.93
2018-01-22T16:06:33.493Z,6.10
2018-01-22T16:09:01.223Z,21.00
2018-01-22T16:11:29.441Z,28.13
2018-01-22T16:13:56.267Z,17.97
2018-01-22T16:16:22.784Z,29.37
2018-01-22T16:18:49.498Z,34.03
2018-01-22T16:21:16.245Z,17.93
2018-01-22T16:23:43.855Z,25.40
2018-01-22T16:26:11.489Z,28.40
2018-01-22T16:28:39.080Z,20.47
2018-01-22T16:31:07.251Z,17.30
2018-01-22T16:33:34.674Z,14.47
2018-01-22T16:36:01.941Z,13.90
2018-01-22T16:38:28.492Z,21.33
2018-01-22T16:40:55.166Z,21.80
2018-01-22T16:43:22.063Z,17.33
2018-01-22T16:45:48.562Z,21.53
2018-01-22T16:48:15.021Z,19.33
2018-01-22T16:50:41.470Z,15.20
2018-01-22T16:53:07.937Z,16.53
2018-01-22T16:55:35.150Z,13.83
2018-01-22T16:58:02.875Z,17.30
2018-01-22T17:00:29.580Z,12.43
2018-01-22T17:02:56.714Z,17.90
2018-01-22T17:05:23.359Z,15.20
2018-01-22T17:07:50.640Z,18.60
2018-01-22T17:10:17.100Z,21.70
2018-01-22T17:12:43.789Z,17.17
2018-01-22T17:15:10.234Z,23.73
2018-01-22T17:17:36.638Z,9.17
2018-01-22T17:20:03.731Z,14.63
2018-01-22T17:22:30.258Z,17.00
2018-01-22T17:24:56.713Z,25.07
2018-01-22T17:27:23.215Z,20.63
2018-01-22T17:29:49.666Z,12.43
2018-01-22T17:32:16.143Z,19.40
2018-01-22T17:34:42.745Z,30.70
2018-01-22T17:37:09.927Z,25.50
2018-01-22T17:39:37.269Z,15.93
2018-01-22T17:42:04.644Z,16.43
2018-01-22T17:44:31.171Z,19.50
2018-01-22T17:46:58.464Z,18.57
2018-01-22T17:49:24.948Z,19.03
2018-01-22T17:51:51.513Z,22.73
2018-01-22T17:54:17.919Z,29.13
2018-01-22T17:56:44.454Z,22.60
2018-01-22T17:59:10.854Z,30.30
2018-01-22T18:01:37.334Z,25.83
2018-01-22T18:04:04.934Z,27.40
2018-01-22T18:06:32.176Z,22.80
2018-01-22T18:08:58.605Z,18.83
2018-01-22T18:11:25.078Z,40.77
2018-01-22T18:13:51.642Z,25.17
2018-01-22T18:16:18.937Z,35.17
2018-01-22T18:18:46.165Z,14.53
2018-01-22T18:21:12.716Z,20.93
2018-01-22T18:23:39.276Z,25.70
2018-01-22T18:26:06.692Z,26.73
2018-01-22T18:28:33.582Z,27.40
2018-01-22T18:31:01.017Z,25.67
2018-01-22T18:33:28.415Z,25.50
2018-01-22T18:35:55.672Z,23.20
2018-01-22T18:38:22.501Z,21.63
2018-01-22T18:40:48.994Z,16.70
2018-01-22T18:43:16.278Z,21.23
2018-01-22T18:45:43.185Z,18.53
2018-01-22T18:48:09.955Z,24.97
2018-01-22T18:50:36.766Z,20.93
2018-01-22T18:53:03.556Z,19.20
2018-01-22T18:55:31.070Z,26.90
2018-01-22T18:57:57.505Z,25.70
2018-01-22T19:00:24.059Z,31.07
2018-01-22T19:02:50.540Z,20.90
2018-01-22T19:05:17.685Z,28.23
2018-01-22T19:07:44.142Z,30.40
2018-01-22T19:10:10.610Z,24.60
2018-01-22T19:12:37.786Z,18.43
2018-01-22T19:15:04.805Z,20.40
2018-01-22T19:17:31.325Z,22.97
2018-01-22T19:19:57.775Z,22.00
2018-01-22T19:22:24.409Z,18.73
2018-01-22T19:24:50.957Z,28.67
2018-01-22T19:27:17.416Z,26.83
2018-01-22T19:29:44.304Z,32.03
2018-01-22T19:32:10.731Z,24.63
2018-01-22T19:34:37.285Z,17.57
2018-01-22T19:37:04.859Z,29.67
2018-01-22T19:39:31.293Z,17.30
2018-01-22T19:41:57.962Z,20.83
2018-01-22T19:44:24.536Z,22.03
2018-01-22T19:46:51.534Z,26.13
2018-01-22T19:49:17.996Z,32.33
2018-01-22T19:51:44.442Z,19.20
2018-01-22T19:54:10.950Z,28.53
2018-01-22T19:56:37.424Z,27.97
2018-01-22T19:59:04.814Z,18.97
2018-01-22T20:01:32.125Z,31.83
2018-01-22T20:03:58.903Z,20.33
2018-01-22T20:06:25.325Z,20.53
2018-01-22T20:08:53.135Z,30.63
2018-01-22T20:11:19.875Z,30.97
2018-01-22T20:13:46.374Z,20.43
2018-01-22T20:16:13.837Z,23.87
2018-01-22T20:18:41.155Z,22.67
2018-01-22T20:21:07.907Z,18.33
2018-01-22T20:23:35.899Z,16.83
2018-01-22T20:26:02.770Z,17.80
2018-01-22T20:28:29.454Z,18.87
2018-01-22T20:30:56.781Z,34.03
2018-01-22T20:33:24.194Z,26.97
2018-01-22T20:35:50.737Z,33.97
2018-01-22T20:38:18.178Z,21.50
2018-01-22T20:40:45.546Z,23.33
2018-01-22T20:43:12.187Z,21.93
2018-01-22T20:45:38.967Z,23.03
2018-01-22T20:48:07.031Z,29.73
2018-01-22T20:50:34.387Z,18.80
2018-01-22T20:53:00.857Z,13.30
2018-01-22T20:55:27.507Z,23.90
2018-01-22T20:57:54.788Z,27.40
2018-01-22T21:00:22.259Z,17.73
2018-01-22T21:02:49.572Z,18.57
2018-01-22T22:33:12.451Z,18.00
2018-01-22T22:35:39.810Z,13.13
2018-01-22T22:38:06.856Z,23.73
2018-01-22T22:40:33.313Z,23.60
2018-01-22T22:42:59.896Z,33.20
2018-01-22T22:45:27.209Z,25.47
2018-01-22T22:47:53.665Z,16.70
2018-01-22T22:50:20.874Z,19.23
2018-01-22T22:52:48.046Z,20.20
2018-01-22T22:55:14.508Z,27.73
2018-01-22T22:57:40.958Z,21.23
2018-01-22T23:00:07.618Z,28.20
2018-01-22T23:02:34.119Z,21.40
2018-01-22T23:05:00.609Z,15.03
2018-01-22T23:07:27.148Z,20.00
2018-01-22T23:09:53.636Z,27.17
2018-01-22T23:12:20.048Z,19.00
2018-01-22T23:14:46.482Z,36.63
2018-01-22T23:17:12.903Z,21.80
2018-01-22T23:19:40.082Z,19.07
2018-01-22T23:22:06.887Z,25.40
2018-01-22T23:24:33.320Z,16.13
2018-01-22T23:26:59.750Z,42.20
2018-01-22T23:29:26.473Z,24.23
2018-01-22T23:31:53.613Z,27.03
2018-01-22T23:34:21.077Z,18.97
2018-01-22T23:36:48.294Z,24.63
2018-01-22T23:39:14.734Z,15.43
2018-01-22T23:41:41.169Z,33.33
2018-01-22T23:44:07.720Z,25.03
2018-01-22T23:46:34.137Z,38.50
2018-01-22T23:49:02.101Z,19.10
2018-01-22T23:51:29.281Z,27.40
2018-01-22T23:53:55.726Z,18.20
2018-01-22T23:56:22.158Z,26.50
2018-01-22T23:58:48.600Z,25.20
